createdAt,value
2023-02-13T00:00:16.263Z,102918.84
2023-02-13T00:02:42.727Z,102917.94
2023-02-13T00:05:09.276Z,102920.50
2023-02-13T00:07:35.730Z,102916.13
2023-02-13T00:10:02.394Z,102909.13
2023-02-13T00:12:28.852Z,102916.13
2023-02-13T00:14:55.433Z,102912.59
2023-02-13T00:17:21.972Z,102910.00
2023-02-13T00:19:48.436Z,102918.75
2023-02-13T00:22:16.691Z,102906.50
2023-02-13T00:24:43.652Z,102908.31
2023-02-13T00:27:10.141Z,102907.38
2023-02-13T00:29:36.603Z,102904.69
2023-02-13T00:32:03.287Z,102902.97
2023-02-13T00:34:29.806Z,102892.47
2023-02-13T00:36:56.290Z,102896.81
2023-02-13T00:39:22.710Z,102899.41
2023-02-13T00:41:49.172Z,102886.41
2023-02-13T00:44:15.861Z,102882.03
2023-02-13T00:46:42.370Z,102885.53
2023-02-13T00:49:08.964Z,102880.28
2023-02-13T00:51:35.553Z,102883.75
2023-02-13T00:54:02.260Z,102882.03
2023-02-13T00:56:28.754Z,102882.00
2023-02-13T00:58:55.203Z,102876.72
2023-02-13T01:01:21.615Z,102883.66
2023-02-13T01:03:48.193Z,102874.94
2023-02-13T01:06:14.714Z,102881.06
2023-02-13T01:08:41.814Z,102884.53
2023-02-13T01:11:08.375Z,102888.88
2023-02-13T01:13:34.877Z,102885.47
2023-02-13T01:16:01.377Z,102888.84
2023-02-13T01:18:28.024Z,102894.06
2023-02-13T01:21:07.228Z,102885.34
2023-02-13T01:23:38.458Z,102877.50
2023-02-13T01:26:06.550Z,102884.44
2023-02-13T01:28:33.746Z,102873.16
2023-02-13T01:31:01.028Z,102874.00
2023-02-13T01:33:29.449Z,102867.03
2023-02-13T01:35:56.027Z,102873.06
2023-02-13T01:38:22.642Z,102879.16
2023-02-13T01:40:51.745Z,102880.81
2023-02-13T01:43:18.771Z,102874.66
2023-02-13T01:45:48.745Z,102879.03
2023-02-13T01:48:21.158Z,102876.44
2023-02-13T01:50:58.923Z,102871.19
2023-02-13T01:53:28.611Z,102874.66
2023-02-13T01:56:02.911Z,102869.41
2023-02-13T01:58:33.707Z,102876.34
2023-02-13T02:01:01.387Z,102869.38
2023-02-13T02:03:35.569Z,102870.25
2023-02-13T02:06:03.284Z,102872.84
2023-02-13T02:08:31.227Z,102865.84
2023-02-13T02:11:07.440Z,102867.56
2023-02-13T02:13:33.913Z,102862.28
2023-02-13T02:16:00.896Z,102875.38
2023-02-13T02:18:27.386Z,102870.97
2023-02-13T02:21:35.544Z,102873.56
2023-02-13T02:24:17.100Z,102870.88
2023-02-13T02:26:58.198Z,102863.06
2023-02-13T02:29:43.841Z,102869.13
2023-02-13T02:32:34.378Z,102872.63
2023-02-13T02:35:13.643Z,102867.38
2023-02-13T02:37:40.010Z,102867.28
2023-02-13T02:40:20.635Z,102867.25
2023-02-13T02:43:34.724Z,102872.47
2023-02-13T02:46:01.086Z,102863.78
2023-02-13T02:48:51.286Z,102863.78
2023-02-13T02:51:43.712Z,102852.44
2023-02-13T02:54:46.455Z,102863.75
2023-02-13T02:57:24.201Z,102861.97
2023-02-13T03:00:11.541Z,102859.38
2023-02-13T03:02:56.185Z,102865.44
2023-02-13T03:05:45.959Z,102859.31
2023-02-13T03:08:14.003Z,102858.44
2023-02-13T03:11:00.161Z,102861.91
2023-02-13T03:13:43.700Z,102862.78
2023-02-13T03:16:40.951Z,102858.41
2023-02-13T03:19:36.713Z,102864.50
2023-02-13T03:22:21.500Z,102868.88
2023-02-13T03:25:08.066Z,102864.50
2023-02-13T03:28:05.199Z,102865.31
2023-02-13T03:30:46.694Z,102860.09
2023-02-13T03:33:35.552Z,102861.78
2023-02-13T03:36:46.972Z,102856.56
2023-02-13T03:39:38.474Z,102862.72
2023-02-13T03:42:11.366Z,102861.03
2023-02-13T03:44:44.100Z,102862.72
2023-02-13T03:47:14.074Z,102857.47
2023-02-13T03:50:07.146Z,102860.06
2023-02-13T03:52:56.891Z,102868.78
2023-02-13T03:56:05.755Z,102867.03
2023-02-13T03:58:57.613Z,102866.16
2023-02-13T04:01:28.493Z,102862.66
2023-02-13T04:04:30.865Z,102867.00
2023-02-13T04:07:05.167Z,102868.72
2023-02-13T04:09:35.560Z,102865.25
2023-02-13T04:12:02.316Z,102866.13
2023-02-13T04:14:37.096Z,102871.31
2023-02-13T04:17:07.826Z,102864.34
2023-02-13T04:19:34.572Z,102870.41
2023-02-13T04:22:02.451Z,102876.50
2023-02-13T04:24:29.316Z,102873.91
2023-02-13T04:26:56.252Z,102875.66
2023-02-13T04:29:24.330Z,102872.19
2023-02-13T04:31:50.923Z,102866.94
2023-02-13T04:34:17.598Z,102866.94
2023-02-13T04:36:44.110Z,102875.66
2023-02-13T04:39:11.839Z,102873.03
2023-02-13T04:41:38.316Z,102871.31
2023-02-13T04:44:04.936Z,102867.81
2023-02-13T04:46:31.385Z,102869.50
2023-02-13T04:48:57.854Z,102873.00
2023-02-13T04:51:24.301Z,102866.91
2023-02-13T04:53:50.705Z,102861.66
2023-02-13T04:56:18.940Z,102866.84
2023-02-13T04:58:46.243Z,102864.28
2023-02-13T05:01:17.111Z,102870.34
2023-02-13T05:03:43.813Z,102866.84
2023-02-13T05:06:10.624Z,102865.06
2023-02-13T05:08:37.185Z,102864.19
2023-02-13T05:11:03.701Z,102868.50
2023-02-13T05:13:30.289Z,102860.69
2023-02-13T05:15:57.000Z,102868.50
2023-02-13T05:18:23.467Z,102864.13
2023-02-13T05:21:09.891Z,102865.03
2023-02-13T05:23:36.590Z,102867.56
2023-02-13T05:26:03.317Z,102874.50
2023-02-13T05:28:48.312Z,102862.25
2023-02-13T05:31:14.917Z,102866.56
2023-02-13T05:33:41.432Z,102865.66
2023-02-13T05:36:08.060Z,102865.59
2023-02-13T05:38:34.514Z,102864.72
2023-02-13T05:41:01.577Z,102862.06
2023-02-13T05:43:29.570Z,102875.06
2023-02-13T05:46:06.154Z,102874.97
2023-02-13T05:48:32.969Z,102878.41
2023-02-13T05:50:59.716Z,102877.44
2023-02-13T05:53:26.307Z,102874.81
2023-02-13T05:55:53.014Z,102875.56
2023-02-13T05:58:20.455Z,102872.88
2023-02-13T06:00:47.889Z,102878.00
2023-02-13T06:03:15.009Z,102873.56
2023-02-13T06:05:41.491Z,102863.91
2023-02-13T06:08:07.968Z,102861.19
2023-02-13T06:10:34.429Z,102867.25
2023-02-13T06:13:00.893Z,102865.44
2023-02-13T06:15:27.506Z,102868.84
2023-02-13T06:17:54.003Z,102863.63
2023-02-13T06:20:20.560Z,102861.81
2023-02-13T06:22:51.573Z,102860.00
2023-02-13T06:25:18.485Z,102862.53
2023-02-13T06:27:48.164Z,102863.38
2023-02-13T06:30:15.898Z,102874.63
2023-02-13T06:32:42.771Z,102870.22
2023-02-13T06:35:09.610Z,102871.06
2023-02-13T06:37:36.145Z,102870.19
2023-02-13T06:40:02.977Z,102869.25
2023-02-13T06:42:29.391Z,102868.28
2023-02-13T06:44:55.924Z,102863.84
2023-02-13T06:47:22.336Z,102865.53
2023-02-13T06:49:48.838Z,102859.38
2023-02-13T06:52:15.357Z,102866.31
2023-02-13T06:54:47.800Z,102868.91
2023-02-13T06:57:15.281Z,102866.31
2023-02-13T06:59:42.068Z,102862.84
2023-02-13T07:02:12.578Z,102858.38
2023-02-13T07:04:39.371Z,102860.03
2023-02-13T07:07:06.041Z,102862.59
2023-02-13T07:09:33.335Z,102863.44
2023-02-13T07:12:03.160Z,102872.91
2023-02-13T07:14:29.635Z,102869.31
2023-02-13T07:16:56.054Z,102871.88
2023-02-13T07:19:22.487Z,102863.19
2023-02-13T07:21:48.941Z,102864.84
2023-02-13T07:24:15.406Z,102864.72
2023-02-13T07:26:42.025Z,102863.91
2023-02-13T07:29:11.843Z,102863.00
2023-02-13T07:31:39.951Z,102862.13
2023-02-13T07:34:06.668Z,102877.00
2023-02-13T07:36:33.196Z,102871.81
2023-02-13T07:38:59.695Z,102870.94
2023-02-13T07:41:26.925Z,102874.44
2023-02-13T07:43:54.132Z,102870.94
2023-02-13T07:46:20.747Z,102877.03
2023-02-13T07:48:47.276Z,102880.50
2023-02-13T07:51:17.033Z,102885.72
2023-02-13T07:53:43.632Z,102886.56
2023-02-13T07:56:11.278Z,102878.75
2023-02-13T07:58:39.971Z,102881.34
2023-02-13T08:01:10.699Z,102882.28
2023-02-13T08:03:38.075Z,102888.41
2023-02-13T08:06:05.827Z,102881.50
2023-02-13T08:08:32.297Z,102877.16
2023-02-13T08:11:24.391Z,102878.13
2023-02-13T08:13:50.833Z,102885.94
2023-02-13T08:16:17.365Z,102870.31
2023-02-13T08:18:43.821Z,102872.13
2023-02-13T08:21:10.375Z,102877.38
2023-02-13T08:23:36.898Z,102875.72
2023-02-13T08:26:03.433Z,102877.53
2023-02-13T08:28:30.217Z,102874.97
2023-02-13T08:30:56.778Z,102878.50
2023-02-13T08:33:23.391Z,102888.13
2023-02-13T08:35:49.878Z,102888.28
2023-02-13T08:38:16.383Z,102884.03
2023-02-13T08:40:42.932Z,102880.63
2023-02-13T08:43:09.457Z,102877.22
2023-02-13T08:45:36.719Z,102879.94
2023-02-13T08:48:07.506Z,102884.47
2023-02-13T08:50:36.158Z,102881.94
2023-02-13T08:53:03.525Z,102881.16
2023-02-13T08:55:31.473Z,102877.81
2023-02-13T08:58:03.489Z,102877.88
2023-02-13T09:00:30.629Z,102885.03
2023-02-13T09:03:01.888Z,102875.56
2023-02-13T09:05:31.269Z,102875.75
2023-02-13T09:08:02.900Z,102879.22
2023-02-13T09:10:30.815Z,102888.03
2023-02-13T09:12:57.285Z,102876.72
2023-02-13T09:15:23.829Z,102887.25
2023-02-13T09:17:50.397Z,102877.75
2023-02-13T09:20:17.065Z,102880.53
2023-02-13T09:22:43.690Z,102875.59
2023-02-13T09:25:10.481Z,102880.88
2023-02-13T09:27:39.117Z,102873.13
2023-02-13T09:30:07.696Z,102874.16
2023-02-13T09:32:34.244Z,102876.97
2023-02-13T09:35:00.690Z,102882.28
2023-02-13T09:37:27.310Z,102873.69
2023-02-13T09:39:53.728Z,102878.09
2023-02-13T09:42:28.959Z,102874.59
2023-02-13T09:45:03.044Z,102879.88
2023-02-13T09:47:34.717Z,102869.63
2023-02-13T09:50:12.472Z,102869.69
2023-02-13T09:52:39.903Z,102878.44
2023-02-13T09:55:29.643Z,102870.78
2023-02-13T09:58:36.734Z,102878.78
2023-02-13T10:01:06.168Z,102872.75
2023-02-13T10:03:42.208Z,102877.91
2023-02-13T10:06:13.384Z,102881.41
2023-02-13T10:08:58.453Z,102886.00
2023-02-13T10:11:45.263Z,102881.50
2023-02-13T10:14:32.544Z,102879.09
2023-02-13T10:17:04.003Z,102879.06
2023-02-13T10:19:55.326Z,102880.91
2023-02-13T10:22:29.580Z,102887.16
2023-02-13T10:25:08.553Z,102889.06
2023-02-13T10:27:38.975Z,102891.91
2023-02-13T10:30:17.193Z,102889.94
2023-02-13T10:33:19.620Z,102888.06
2023-02-13T10:36:01.571Z,102886.50
2023-02-13T10:38:31.304Z,102885.84
2023-02-13T10:41:13.308Z,102884.22
2023-02-13T10:44:26.149Z,102883.44
2023-02-13T10:47:10.683Z,102880.00
2023-02-13T10:49:46.287Z,102887.09
2023-02-13T10:52:24.954Z,102891.34
2023-02-13T10:55:10.716Z,102885.53
2023-02-13T10:57:39.806Z,102880.28
2023-02-13T11:00:33.570Z,102876.72
2023-02-13T11:03:00.419Z,102877.69
2023-02-13T11:05:41.068Z,102871.69
2023-02-13T11:08:43.240Z,102868.38
2023-02-13T11:11:33.262Z,102864.22
2023-02-13T11:14:18.200Z,102863.50
2023-02-13T11:16:51.700Z,102865.69
2023-02-13T11:19:40.351Z,102845.63
2023-02-13T11:22:14.520Z,102839.19
2023-02-13T11:24:50.624Z,102844.47
2023-02-13T11:27:26.975Z,102834.91
2023-02-13T11:29:59.225Z,102834.09
2023-02-13T11:32:29.187Z,102827.19
2023-02-13T11:34:56.629Z,102822.59
2023-02-13T11:37:26.030Z,102822.63
2023-02-13T11:39:56.311Z,102823.69
2023-02-13T11:42:37.223Z,102819.50
2023-02-13T11:45:07.141Z,102821.47
2023-02-13T11:47:42.345Z,102822.28
2023-02-13T11:50:26.396Z,102828.22
2023-02-13T11:53:01.457Z,102818.66
2023-02-13T11:55:32.589Z,102813.50
2023-02-13T11:58:24.683Z,102808.22
2023-02-13T12:01:22.223Z,102806.09
2023-02-13T12:04:03.948Z,102805.25
2023-02-13T12:06:34.942Z,102788.81
2023-02-13T12:09:01.502Z,102796.16
2023-02-13T12:11:51.373Z,102787.22
2023-02-13T12:14:25.077Z,102790.88
2023-02-13T12:16:57.759Z,102792.41
2023-02-13T12:19:29.823Z,102784.66
2023-02-13T12:22:30.642Z,102787.03
2023-02-13T12:25:32.711Z,102784.25
2023-02-13T12:28:28.383Z,102774.38
2023-02-13T12:31:08.708Z,102773.66
2023-02-13T12:34:05.467Z,102770.19
2023-02-13T12:37:13.636Z,102775.63
2023-02-13T12:39:59.654Z,102762.56
2023-02-13T12:42:38.073Z,102760.69
2023-02-13T12:45:33.607Z,102757.25
2023-02-13T12:48:31.899Z,102757.97
2023-02-13T12:51:27.533Z,102761.28
2023-02-13T12:54:32.927Z,102752.56
2023-02-13T12:57:15.837Z,102750.97
2023-02-13T13:00:02.909Z,102743.94
2023-02-13T13:02:43.242Z,102746.78
2023-02-13T13:05:22.122Z,102736.47
2023-02-13T13:08:18.146Z,102741.63
2023-02-13T13:10:58.817Z,102740.59
2023-02-13T13:13:25.430Z,102733.69
2023-02-13T13:16:15.826Z,102725.91
2023-02-13T13:18:55.476Z,102729.25
2023-02-13T13:21:48.182Z,102720.72
2023-02-13T13:24:38.248Z,102716.97
2023-02-13T13:27:10.373Z,102714.34
2023-02-13T13:29:44.941Z,102710.66
2023-02-13T13:32:17.877Z,102713.50
2023-02-13T13:34:45.941Z,102722.25
2023-02-13T13:37:39.686Z,102704.63
2023-02-13T13:40:37.273Z,102704.38
2023-02-13T13:43:32.773Z,102700.16
2023-02-13T13:46:08.393Z,102704.31
2023-02-13T13:48:50.144Z,102708.66
2023-02-13T13:51:18.783Z,102707.72
2023-02-13T13:54:03.385Z,102695.81
2023-02-13T13:56:56.892Z,102697.09
2023-02-13T13:59:38.745Z,102689.28
2023-02-13T14:02:17.419Z,102686.53
2023-02-13T14:05:09.829Z,102687.59
2023-02-13T14:07:41.166Z,102678.91
2023-02-13T14:10:26.033Z,102674.66
2023-02-13T14:12:55.426Z,102677.41
2023-02-13T14:15:34.187Z,102675.66
2023-02-13T14:18:08.039Z,102675.66
2023-02-13T14:20:36.383Z,102668.63
2023-02-13T14:23:21.446Z,102675.72
2023-02-13T14:25:48.035Z,102678.38
2023-02-13T14:28:26.011Z,102669.59
2023-02-13T14:31:05.324Z,102679.22
2023-02-13T14:33:32.749Z,102676.56
2023-02-13T14:36:07.788Z,102670.41
2023-02-13T14:38:35.749Z,102670.44
2023-02-13T14:41:02.409Z,102664.31
2023-02-13T14:43:33.218Z,102667.84
2023-02-13T14:46:02.569Z,102667.84
2023-02-13T14:48:37.349Z,102666.97
2023-02-13T14:51:05.337Z,102664.34
2023-02-13T14:53:55.212Z,102668.72
2023-02-13T14:56:23.239Z,102661.66
2023-02-13T14:59:00.666Z,102665.19
2023-02-13T15:01:35.305Z,102660.72
2023-02-13T15:04:22.046Z,102658.09
2023-02-13T15:06:49.991Z,102651.13
2023-02-13T15:09:24.206Z,102653.69
2023-02-13T15:11:50.642Z,102651.03
2023-02-13T15:14:20.342Z,102650.97
2023-02-13T15:16:52.398Z,102650.97
2023-02-13T15:19:20.917Z,102647.44
2023-02-13T15:21:52.890Z,102655.25
2023-02-13T15:24:22.923Z,102642.06
2023-02-13T15:27:16.551Z,102640.28
2023-02-13T15:30:05.590Z,102640.25
2023-02-13T15:32:39.217Z,102637.59
2023-02-13T15:35:24.783Z,102641.06
2023-02-13T15:37:51.640Z,102641.88
2023-02-13T15:40:24.964Z,102640.94
2023-02-13T15:42:52.106Z,102638.28
2023-02-13T15:45:19.486Z,102634.78
2023-02-13T15:47:47.392Z,102631.31
2023-02-13T15:50:28.984Z,102639.16
2023-02-13T15:52:55.820Z,102628.59
2023-02-13T15:55:25.914Z,102639.88
2023-02-13T15:57:56.200Z,102629.34
2023-02-13T16:00:33.194Z,102635.41
2023-02-13T16:03:04.184Z,102641.47
2023-02-13T16:05:40.636Z,102637.03
2023-02-13T16:08:43.916Z,102636.91
2023-02-13T16:11:30.693Z,102629.84
2023-02-13T16:14:24.764Z,102632.41
2023-02-13T16:16:51.208Z,102622.69
2023-02-13T16:19:31.697Z,102633.09
2023-02-13T16:22:01.744Z,102633.03
2023-02-13T16:24:29.138Z,102634.72
2023-02-13T16:26:56.275Z,102632.91
2023-02-13T16:29:26.511Z,102634.56
2023-02-13T16:32:02.571Z,102637.09
2023-02-13T16:34:30.728Z,102629.16
2023-02-13T16:36:57.429Z,102624.72
2023-02-13T16:39:29.035Z,102634.25
2023-02-13T16:41:57.429Z,102633.28
2023-02-13T16:44:29.847Z,102637.63
2023-02-13T16:46:58.472Z,102637.53
2023-02-13T16:49:28.371Z,102638.34
2023-02-13T16:52:15.525Z,102637.38
2023-02-13T16:54:45.156Z,102642.53
2023-02-13T16:57:14.611Z,102645.84
2023-02-13T16:59:47.140Z,102652.72
2023-02-13T17:02:25.697Z,102637.78
2023-02-13T17:05:01.573Z,102649.91
2023-02-13T17:07:30.619Z,102656.78
2023-02-13T17:10:03.151Z,102660.13
2023-02-13T17:12:31.891Z,102664.34
2023-02-13T17:14:59.814Z,102664.16
2023-02-13T17:17:29.511Z,102665.69
2023-02-13T17:19:56.199Z,102675.16
2023-02-13T17:22:30.236Z,102670.66
2023-02-13T17:24:58.507Z,102674.91
2023-02-13T17:27:25.177Z,102674.00
2023-02-13T17:29:51.872Z,102679.03
2023-02-13T17:32:22.305Z,102675.25
2023-02-13T17:34:48.893Z,102678.59
2023-02-13T17:37:21.004Z,102681.13
2023-02-13T17:39:48.304Z,102684.41
2023-02-13T17:42:26.633Z,102683.38
2023-02-13T17:44:58.203Z,102684.06
2023-02-13T17:47:25.725Z,102682.03
2023-02-13T17:49:59.223Z,102686.97
2023-02-13T17:52:31.689Z,102675.66
2023-02-13T17:54:58.156Z,102685.13
2023-02-13T17:57:24.965Z,102686.75
2023-02-13T17:59:51.727Z,102677.94
2023-02-13T18:02:23.521Z,102691.38
2023-02-13T18:04:50.688Z,102685.19
2023-02-13T18:07:20.250Z,102686.91
2023-02-13T18:09:47.405Z,102685.94
2023-02-13T18:12:23.720Z,102685.16
2023-02-13T18:14:51.414Z,102682.56
2023-02-13T18:17:19.066Z,102681.66
2023-02-13T18:19:45.861Z,102685.06
2023-02-13T18:22:12.882Z,102689.94
2023-02-13T18:24:41.963Z,102686.25
2023-02-13T18:27:11.206Z,102682.69
2023-02-13T18:29:38.772Z,102688.44
2023-02-13T18:32:10.254Z,102688.16
2023-02-13T18:34:37.967Z,102681.19
2023-02-13T18:37:05.897Z,102684.59
2023-02-13T18:39:32.737Z,102683.28
2023-02-13T18:41:59.204Z,102684.75
2023-02-13T18:44:28.735Z,102684.44
2023-02-13T18:46:55.634Z,102676.31
2023-02-13T18:49:22.248Z,102682.19
2023-02-13T18:51:48.756Z,102683.03
2023-02-13T18:54:15.330Z,102686.53
2023-02-13T18:56:41.899Z,102681.25
2023-02-13T18:59:08.410Z,102690.59
2023-02-13T19:01:35.400Z,102687.06
2023-02-13T19:04:03.278Z,102692.34
2023-02-13T19:06:30.604Z,102680.22
2023-02-13T19:08:58.443Z,102679.66
2023-02-13T19:11:26.492Z,102678.25
2023-02-13T19:13:55.189Z,102678.97
2023-02-13T19:16:21.922Z,102684.72
2023-02-13T19:18:53.756Z,102675.53
2023-02-13T19:21:22.885Z,102678.47
2023-02-13T19:23:50.905Z,102679.94
2023-02-13T19:26:20.862Z,102678.41
2023-02-13T19:28:48.062Z,102684.56
2023-02-13T19:31:17.596Z,102680.16
2023-02-13T19:33:44.979Z,102681.97
2023-02-13T19:36:14.669Z,102689.13
2023-02-13T19:38:43.264Z,102684.91
2023-02-13T19:41:12.252Z,102693.78
2023-02-13T19:43:39.067Z,102691.31
2023-02-13T19:46:12.949Z,102692.31
2023-02-13T19:48:40.241Z,102690.88
2023-02-13T19:51:07.906Z,102695.44
2023-02-13T19:53:34.462Z,102694.91
2023-02-13T19:56:01.644Z,102696.78
2023-02-13T19:58:28.304Z,102693.53
2023-02-13T20:00:54.881Z,102696.34
2023-02-13T20:03:21.842Z,102686.09
2023-02-13T20:05:48.631Z,102693.97
2023-02-13T20:08:15.094Z,102701.03
2023-02-13T20:10:46.080Z,102702.88
2023-02-13T20:13:12.582Z,102702.88
2023-02-13T20:15:40.611Z,102697.75
2023-02-13T20:18:07.399Z,102706.50
2023-02-13T20:20:33.858Z,102698.72
2023-02-13T20:23:00.284Z,102698.75
2023-02-13T20:25:32.030Z,102700.53
2023-02-13T20:27:59.349Z,102697.91
2023-02-13T20:30:26.059Z,102703.97
2023-02-13T20:32:52.522Z,102705.75
2023-02-13T20:35:19.068Z,102704.91
2023-02-13T20:37:45.622Z,102704.91
2023-02-13T20:40:12.807Z,102700.53
2023-02-13T20:42:39.302Z,102702.28
2023-02-13T20:45:06.130Z,102701.44
2023-02-13T20:47:32.991Z,102696.19
2023-02-13T20:49:59.465Z,102706.66
2023-02-13T20:52:26.066Z,102696.22
2023-02-13T20:54:52.503Z,102696.19
2023-02-13T20:57:19.221Z,102700.53
2023-02-13T20:59:45.730Z,102703.91
2023-02-13T21:02:12.710Z,102700.31
2023-02-13T21:04:39.325Z,102697.72
2023-02-13T21:07:09.227Z,102709.81
2023-02-13T21:09:37.102Z,102700.16
2023-02-13T21:12:04.779Z,102691.41
2023-02-13T21:14:31.314Z,102708.75
2023-02-13T21:16:57.808Z,102701.75
2023-02-13T21:19:24.452Z,102705.97
2023-02-13T21:21:50.965Z,102703.28
2023-02-13T21:24:20.382Z,102701.47
2023-02-13T21:26:49.585Z,102696.13
2023-02-13T21:29:16.060Z,102688.25
2023-02-13T21:31:47.684Z,102690.63
2023-02-13T21:34:15.920Z,102694.59
2023-02-13T21:36:42.726Z,102695.41
2023-02-13T21:39:11.268Z,102693.44
2023-02-13T21:41:41.587Z,102691.72
2023-02-13T21:44:08.044Z,102695.72
2023-02-13T21:46:34.581Z,102699.84
2023-02-13T21:49:03.897Z,102694.63
2023-02-13T21:51:32.952Z,102690.22
2023-02-13T21:54:01.067Z,102697.16
2023-02-13T21:56:30.907Z,102687.72
2023-02-13T21:58:58.377Z,102688.56
2023-02-13T22:01:35.829Z,102686.84
2023-02-13T22:04:05.196Z,102685.72
2023-02-13T22:06:33.715Z,102683.75
2023-02-13T22:09:07.050Z,102679.31
2023-02-13T22:11:34.264Z,102679.97
2023-02-13T22:14:03.538Z,102685.81
2023-02-13T22:16:31.942Z,102689.16
2023-02-13T22:19:00.249Z,102688.25
2023-02-13T22:21:28.730Z,102694.38
2023-02-13T22:23:55.807Z,102687.19
2023-02-13T22:26:22.196Z,102685.19
2023-02-13T22:28:49.074Z,102683.03
2023-02-13T22:31:16.874Z,102685.56
2023-02-13T22:33:47.599Z,102684.59
2023-02-13T22:36:18.078Z,102684.59
2023-02-13T22:38:44.725Z,102690.59
2023-02-13T22:41:17.892Z,102694.09
2023-02-13T22:43:44.396Z,102694.88
2023-02-13T22:46:14.052Z,102698.94
2023-02-13T22:48:42.071Z,102694.56
2023-02-13T22:51:11.050Z,102694.56
2023-02-13T22:53:38.144Z,102691.78
2023-02-13T22:56:07.008Z,102698.56
2023-02-13T22:58:34.147Z,102698.44
2023-02-13T23:01:01.214Z,102694.06
2023-02-13T23:03:27.994Z,102696.72
2023-02-13T23:05:54.468Z,102694.16
2023-02-13T23:08:20.945Z,102689.50
2023-02-13T23:11:07.416Z,102696.03
2023-02-13T23:13:33.925Z,102695.13
2023-02-13T23:16:00.422Z,102695.78
2023-02-13T23:18:26.968Z,102692.34
2023-02-13T23:20:53.408Z,102683.19
2023-02-13T23:23:19.895Z,102690.91
2023-02-13T23:25:46.397Z,102687.91
2023-02-13T23:28:12.825Z,102684.56
2023-02-13T23:30:39.601Z,102689.75
2023-02-13T23:33:06.049Z,102689.75
2023-02-13T23:35:32.602Z,102697.66
2023-02-13T23:37:59.092Z,102701.84
2023-02-13T23:40:25.610Z,102703.66
2023-02-13T23:42:52.113Z,102694.91
2023-02-13T23:45:18.625Z,102694.56
2023-02-13T23:47:45.083Z,102697.16
2023-02-13T23:50:11.548Z,102699.84
2023-02-13T23:52:37.964Z,102698.09
2023-02-13T23:55:05.969Z,102698.28
2023-02-13T23:57:32.395Z,102701.66
2023-02-13T23:59:58.829Z,102693.06
